Eastside, Florida
Current Conditions -  °F | °C
As of 3:58 AM on Saturday 25 Oct 2014 (Local Time) from KPAM Reporting Station
Clear Clear  
Wind Chill: 53°   Ceiling: Unl
Heat Index: 53°   Visibility: 10mi
Dew Point: 49°   Wind: 3mph
Humidity: 85%   Direction: 350°N
Pressure: 30.02"   Gusts: NA
Location:  30.1957°N, 85.4833°W
Report Text: KPAM 250858Z AUTO 35003KT 10SM CLR 12/09 A3002 RMK AO2 SLP169 T01170093 56004 $
Loading
Personal Weather Stations






























Interactive Weather Map
Tropical Storm Tracking
New forecast layout! Learn more

10-Day Weather Forecast

Advertisements
Track Severe Weather on mobile